createdAt,value
2023-03-21T00:00:59.427Z,101653.78
2023-03-21T00:01:08.498Z,101604.45
2023-03-21T00:02:09.266Z,101638.02
2023-03-21T00:03:09.991Z,101637.86
2023-03-21T00:04:10.799Z,101637.19
2023-03-21T00:05:15.695Z,101637.10
2023-03-21T00:06:12.003Z,101636.27
2023-03-21T00:07:12.502Z,101635.67
2023-03-21T00:08:13.198Z,101634.83
2023-03-21T00:09:14.095Z,101633.99
2023-03-21T00:10:19.682Z,101633.82
2023-03-21T00:11:15.640Z,101633.31
2023-03-21T00:12:16.422Z,101632.81
2023-03-21T00:12:28.533Z,101569.58
2023-03-21T00:13:29.472Z,101624.14
2023-03-21T00:14:30.218Z,101624.39
2023-03-21T00:15:42.631Z,101624.73
2023-03-21T00:16:31.458Z,101625.06
2023-03-21T00:17:31.688Z,101625.23
2023-03-21T00:18:32.256Z,101625.41
2023-03-21T00:19:32.825Z,101624.91
2023-03-21T00:20:33.488Z,101624.98
2023-03-21T00:21:55.522Z,101625.06
2023-03-21T00:22:34.775Z,101625.17
2023-03-21T00:23:35.518Z,101625.20
2023-03-21T00:23:47.125Z,101510.90
2023-03-21T00:24:47.704Z,101623.73
2023-03-21T00:25:48.342Z,101623.39
2023-03-21T00:26:48.430Z,101623.48
2023-03-21T00:28:05.218Z,101623.28
2023-03-21T00:28:49.752Z,101622.92
2023-03-21T00:29:50.511Z,101622.59
2023-03-21T00:30:51.088Z,101622.17
2023-03-21T00:31:52.020Z,101621.83
2023-03-21T00:32:56.566Z,101621.33
2023-03-21T00:33:53.606Z,101621.47
2023-03-21T00:35:09.677Z,101620.97
2023-03-21T00:35:26.126Z,101533.73
2023-03-21T00:36:12.374Z,101623.54
2023-03-21T00:37:04.719Z,101623.14
2023-03-21T00:38:05.373Z,101622.72
2023-03-21T00:39:06.251Z,101622.22
2023-03-21T00:40:08.780Z,101621.55
2023-03-21T00:41:18.870Z,101621.12
2023-03-21T00:42:07.853Z,101620.64
2023-03-21T00:43:08.697Z,101620.13
2023-03-21T00:44:09.602Z,101619.20
2023-03-21T00:45:09.503Z,101618.86
2023-03-21T00:46:09.838Z,101618.53
2023-03-21T00:46:18.712Z,101534.17
2023-03-21T00:47:19.167Z,101611.09
2023-03-21T00:48:19.993Z,101610.93
2023-03-21T00:49:20.691Z,101610.42
2023-03-21T00:50:21.325Z,101609.92
2023-03-21T00:51:22.272Z,101609.67
2023-03-21T00:52:34.380Z,101609.25
2023-03-21T00:53:23.702Z,101608.08
2023-03-21T00:54:24.463Z,101607.83
2023-03-21T00:55:25.314Z,101607.54
2023-03-21T00:56:26.057Z,101607.38
2023-03-21T00:57:37.867Z,101606.95
2023-03-21T00:57:39.017Z,101556.57
2023-03-21T00:58:36.036Z,101610.92
2023-03-21T00:59:36.760Z,101610.25
2023-03-21T01:00:37.695Z,101609.74
2023-03-21T01:01:38.777Z,101609.07
2023-03-21T01:02:39.577Z,101608.34
2023-03-21T01:03:40.267Z,101607.16
2023-03-21T01:04:40.961Z,101606.56
2023-03-21T01:05:41.861Z,101605.33
2023-03-21T01:06:42.867Z,101604.06
2023-03-21T01:07:43.650Z,101602.88
2023-03-21T01:08:53.165Z,101602.30
2023-03-21T01:08:53.649Z,101499.19
2023-03-21T01:09:53.689Z,101592.69
2023-03-21T01:10:54.444Z,101591.92
2023-03-21T01:11:55.337Z,101590.97
2023-03-21T01:12:56.047Z,101590.23
2023-03-21T01:14:10.751Z,101589.84
2023-03-21T01:14:57.291Z,101589.33
2023-03-21T01:15:58.030Z,101588.68
2023-03-21T01:16:58.973Z,101588.09
2023-03-21T01:17:59.721Z,101587.16
2023-03-21T01:19:01.144Z,101586.27
2023-03-21T01:20:01.193Z,101585.59
2023-03-21T01:20:10.269Z,101523.84
2023-03-21T01:21:10.853Z,101576.30
2023-03-21T01:22:11.693Z,101575.80
2023-03-21T01:23:12.267Z,101575.55
2023-03-21T01:24:12.881Z,101575.09
2023-03-21T01:25:22.337Z,101574.78
2023-03-21T01:26:14.203Z,101574.56
2023-03-21T01:27:15.003Z,101574.39
2023-03-21T01:28:15.604Z,101574.25
2023-03-21T01:29:16.310Z,101573.73
2023-03-21T01:30:21.549Z,101573.85
2023-03-21T01:31:17.327Z,101574.02
2023-03-21T01:31:26.396Z,101499.19
2023-03-21T01:32:27.119Z,101581.06
2023-03-21T01:33:27.790Z,101580.05
2023-03-21T01:34:28.676Z,101579.37
2023-03-21T01:35:37.551Z,101578.03
2023-03-21T01:36:29.920Z,101577.61
2023-03-21T01:37:30.646Z,101577.05
2023-03-21T01:38:31.269Z,101576.37
2023-03-21T01:39:32.089Z,101575.62
2023-03-21T01:40:33.866Z,101574.61
2023-03-21T01:41:42.530Z,101573.93
2023-03-21T01:41:44.423Z,101532.56
2023-03-21T01:42:43.430Z,101562.20
2023-03-21T01:43:44.160Z,101561.61
2023-03-21T01:44:44.958Z,101561.39
2023-03-21T01:45:45.702Z,101561.30
2023-03-21T01:46:57.084Z,101561.05
2023-03-21T01:47:46.516Z,101560.29
2023-03-21T01:48:46.462Z,101559.73
2023-03-21T01:49:47.157Z,101559.28
2023-03-21T01:50:47.806Z,101558.44
2023-03-21T01:51:48.433Z,101558.27
2023-03-21T01:52:01.093Z,101428.15
2023-03-21T01:52:57.346Z,101553.31
2023-03-21T01:53:57.938Z,101552.89
2023-03-21T01:54:58.732Z,101552.30
2023-03-21T01:55:59.478Z,101551.91
2023-03-21T01:57:00.375Z,101551.39
2023-03-21T01:58:07.946Z,101550.97
2023-03-21T01:59:04.344Z,101550.58
2023-03-21T02:00:02.589Z,101549.98
2023-03-21T02:01:03.326Z,101549.39
2023-03-21T02:02:03.958Z,101549.14
2023-03-21T02:03:13.779Z,101548.08
2023-03-21T02:04:05.248Z,101547.80
2023-03-21T02:04:14.934Z,101491.13
2023-03-21T02:05:15.798Z,101542.53
2023-03-21T02:06:16.699Z,101542.28
2023-03-21T02:07:17.403Z,101541.30
2023-03-21T02:08:18.160Z,101540.88
2023-03-21T02:09:19.008Z,101540.36
2023-03-21T02:10:19.740Z,101539.27
2023-03-21T02:11:20.492Z,101538.59
2023-03-21T02:12:21.212Z,101537.59
2023-03-21T02:13:22.013Z,101536.91
2023-03-21T02:14:31.381Z,101468.14
2023-03-21T02:15:32.066Z,101518.47
2023-03-21T02:16:32.825Z,101518.42
2023-03-21T02:17:33.466Z,101518.16
2023-03-21T02:18:34.108Z,101518.11
2023-03-21T02:19:41.647Z,101518.09
2023-03-21T02:20:35.517Z,101517.80
2023-03-21T02:21:36.330Z,101517.03
2023-03-21T02:22:36.936Z,101516.80
2023-03-21T02:23:37.609Z,101517.03
2023-03-21T02:24:46.216Z,101516.52
2023-03-21T02:25:39.096Z,101515.80
2023-03-21T02:26:42.931Z,101515.63
2023-03-21T02:27:20.836Z,101456.30
2023-03-21T02:28:21.385Z,101512.89
2023-03-21T02:29:22.709Z,101512.56
2023-03-21T02:30:29.484Z,101511.60
2023-03-21T02:31:23.688Z,101511.10
2023-03-21T02:32:36.495Z,101510.73
2023-03-21T02:33:25.082Z,101509.64
2023-03-21T02:34:27.024Z,101508.70
2023-03-21T02:35:26.698Z,101507.69
2023-03-21T02:36:27.590Z,101507.08
2023-03-21T02:37:37.538Z,101506.38
2023-03-21T02:38:29.097Z,101505.42
2023-03-21T02:38:37.720Z,101462.95
2023-03-21T02:39:38.333Z,101492.79
2023-03-21T02:40:39.440Z,101492.37
2023-03-21T02:41:40.499Z,101492.03
2023-03-21T02:42:42.054Z,101491.47
2023-03-21T02:43:41.455Z,101491.47
2023-03-21T02:44:42.288Z,101491.05
2023-03-21T02:45:42.929Z,101490.71
2023-03-21T02:46:48.984Z,101490.54
2023-03-21T02:47:44.183Z,101489.87
2023-03-21T02:48:50.912Z,101489.95
2023-03-21T02:48:53.716Z,101445.13
2023-03-21T02:49:54.521Z,101489.28
2023-03-21T02:50:55.176Z,101489.02
2023-03-21T02:51:58.120Z,101488.86
2023-03-21T02:52:56.516Z,101488.27
2023-03-21T02:54:23.762Z,101488.27
2023-03-21T02:54:57.830Z,101487.77
2023-03-21T02:55:58.583Z,101487.84
2023-03-21T02:56:59.250Z,101487.45
2023-03-21T02:58:11.676Z,101487.02
2023-03-21T02:59:00.637Z,101487.56
2023-03-21T03:00:10.682Z,101487.22
2023-03-21T03:00:16.101Z,101422.56
2023-03-21T03:01:10.771Z,101491.35
2023-03-21T03:02:10.799Z,101491.18
2023-03-21T03:03:18.035Z,101490.56
2023-03-21T03:04:12.141Z,101490.06
2023-03-21T03:05:20.789Z,101489.64
2023-03-21T03:06:13.649Z,101489.64
2023-03-21T03:07:14.305Z,101489.38
2023-03-21T03:08:14.382Z,101489.55
2023-03-21T03:09:14.660Z,101489.05
2023-03-21T03:10:15.388Z,101489.30
2023-03-21T03:10:26.044Z,101425.25
2023-03-21T03:11:26.699Z,101491.13
2023-03-21T03:12:27.374Z,101490.70
2023-03-21T03:13:27.941Z,101490.54
2023-03-21T03:14:44.300Z,101490.54
2023-03-21T03:15:29.554Z,101490.15
2023-03-21T03:16:30.139Z,101490.06
2023-03-21T03:17:30.773Z,101489.89
2023-03-21T03:18:31.105Z,101489.89
2023-03-21T03:19:36.611Z,101489.56
2023-03-21T03:20:32.260Z,101489.39
2023-03-21T03:20:40.948Z,101421.94
2023-03-21T03:21:41.673Z,101492.38
2023-03-21T03:22:42.316Z,101491.88
2023-03-21T03:23:43.022Z,101491.20
2023-03-21T03:24:43.582Z,101490.61
2023-03-21T03:25:44.266Z,101490.45
2023-03-21T03:26:45.011Z,101489.52
2023-03-21T03:27:45.731Z,101488.63
2023-03-21T03:28:46.396Z,101488.37
2023-03-21T03:29:47.102Z,101487.52
2023-03-21T03:31:04.991Z,101486.37
2023-03-21T03:31:48.402Z,101485.86
2023-03-21T03:32:48.851Z,101484.87
2023-03-21T03:32:57.914Z,101404.13
2023-03-21T03:33:57.941Z,101478.30
2023-03-21T03:34:58.916Z,101477.28
2023-03-21T03:36:05.574Z,101476.61
2023-03-21T03:37:00.350Z,101475.60
2023-03-21T03:38:00.912Z,101475.43
2023-03-21T03:39:01.498Z,101475.01
2023-03-21T03:40:02.144Z,101474.92
2023-03-21T03:41:02.974Z,101474.42
2023-03-21T03:42:15.426Z,101474.59
2023-03-21T03:43:04.186Z,101474.50
2023-03-21T03:44:04.900Z,101473.91
2023-03-21T03:44:13.493Z,101379.08
2023-03-21T03:45:14.338Z,101471.66
2023-03-21T03:46:14.910Z,101471.23
2023-03-21T03:47:26.198Z,101471.34
2023-03-21T03:48:15.872Z,101471.42
2023-03-21T03:49:16.407Z,101470.75
2023-03-21T03:50:16.975Z,101470.27
2023-03-21T03:51:17.857Z,101470.05
2023-03-21T03:52:18.552Z,101469.98
2023-03-21T03:53:19.205Z,101470.06
2023-03-21T03:54:19.813Z,101469.84
2023-03-21T03:55:20.491Z,101469.36
2023-03-21T03:55:29.299Z,101411.78
2023-03-21T03:56:29.937Z,101465.45
2023-03-21T03:57:30.604Z,101464.95
2023-03-21T03:58:44.589Z,101464.78
2023-03-21T03:59:31.943Z,101464.44
2023-03-21T04:00:32.616Z,101464.44
2023-03-21T04:01:33.468Z,101464.27
2023-03-21T04:02:34.248Z,101463.84
2023-03-21T04:03:47.844Z,101463.43
2023-03-21T04:04:35.519Z,101462.92
2023-03-21T04:05:36.226Z,101462.47
2023-03-21T04:05:44.927Z,101416.77
2023-03-21T04:06:45.633Z,101463.17
2023-03-21T04:07:46.330Z,101463.00
2023-03-21T04:08:47.214Z,101462.49
2023-03-21T04:09:48.039Z,101462.41
2023-03-21T04:10:48.658Z,101461.91
2023-03-21T04:11:48.723Z,101461.29
2023-03-21T04:12:49.337Z,101460.62
2023-03-21T04:13:50.020Z,101460.28
2023-03-21T04:14:50.718Z,101459.72
2023-03-21T04:15:51.395Z,101459.30
2023-03-21T04:16:00.092Z,101403.72
2023-03-21T04:17:00.799Z,101447.42
2023-03-21T04:18:01.415Z,101447.50
2023-03-21T04:19:02.028Z,101447.28
2023-03-21T04:20:11.612Z,101447.19
2023-03-21T04:21:03.019Z,101447.61
2023-03-21T04:22:03.811Z,101447.22
2023-03-21T04:23:04.594Z,101447.21
2023-03-21T04:24:05.365Z,101447.23
2023-03-21T04:25:06.354Z,101446.67
2023-03-21T04:26:07.105Z,101446.61
2023-03-21T04:26:16.790Z,101380.91
2023-03-21T04:27:17.692Z,101448.45
2023-03-21T04:28:18.319Z,101448.11
2023-03-21T04:29:18.983Z,101448.02
2023-03-21T04:30:19.744Z,101447.23
2023-03-21T04:31:26.073Z,101446.48
2023-03-21T04:32:20.534Z,101446.32
2023-03-21T04:33:21.209Z,101445.79
2023-03-21T04:34:21.828Z,101445.84
2023-03-21T04:35:22.251Z,101445.23
2023-03-21T04:36:23.057Z,101444.40
2023-03-21T04:36:31.707Z,101364.78
2023-03-21T04:37:32.456Z,101438.72
2023-03-21T04:38:33.060Z,101438.41
2023-03-21T04:39:33.805Z,101438.23
2023-03-21T04:40:34.419Z,101438.17
2023-03-21T04:41:34.659Z,101438.28
2023-03-21T04:42:35.490Z,101438.23
2023-03-21T04:43:36.097Z,101438.30
2023-03-21T04:44:36.789Z,101438.67
2023-03-21T04:45:37.454Z,101439.00
2023-03-21T04:46:38.478Z,101438.86
2023-03-21T04:46:47.641Z,101332.26
2023-03-21T04:47:48.650Z,101445.97
2023-03-21T04:48:49.340Z,101445.55
2023-03-21T04:49:49.913Z,101445.97
2023-03-21T04:50:50.570Z,101445.81
2023-03-21T04:51:51.215Z,101445.53
2023-03-21T04:52:51.920Z,101445.53
2023-03-21T04:53:52.659Z,101445.33
2023-03-21T04:54:53.340Z,101445.08
2023-03-21T04:55:55.555Z,101444.66
2023-03-21T04:56:54.870Z,101443.97
2023-03-21T04:57:03.623Z,101446.80
2023-03-21T04:58:04.341Z,101441.41
2023-03-21T04:59:05.181Z,101441.32
2023-03-21T05:00:06.132Z,101440.42
2023-03-21T05:01:06.768Z,101440.59
2023-03-21T05:02:07.573Z,101440.42
2023-03-21T05:03:08.414Z,101440.34
2023-03-21T05:04:09.244Z,101440.34
2023-03-21T05:05:10.092Z,101439.75
2023-03-21T05:06:10.904Z,101439.50
2023-03-21T05:07:11.151Z,101439.25
2023-03-21T05:07:19.770Z,101374.92
2023-03-21T05:08:20.014Z,101444.32
2023-03-21T05:09:20.891Z,101444.32
2023-03-21T05:10:21.825Z,101443.98
2023-03-21T05:11:22.785Z,101443.22
2023-03-21T05:12:23.580Z,101442.30
2023-03-21T05:13:23.622Z,101441.91
2023-03-21T05:14:24.440Z,101441.48
2023-03-21T05:15:25.328Z,101441.14
2023-03-21T05:16:26.273Z,101440.97
2023-03-21T05:17:26.892Z,101440.47
2023-03-21T05:18:26.989Z,101439.63
2023-03-21T05:18:35.630Z,101439.12
2023-03-21T05:19:36.567Z,101438.95
2023-03-21T05:20:37.357Z,101438.11
2023-03-21T05:21:38.221Z,101437.61
2023-03-21T05:22:39.056Z,101437.27
2023-03-21T05:23:39.963Z,101436.94
2023-03-21T05:24:40.801Z,101436.86
2023-03-21T05:25:41.700Z,101436.02
2023-03-21T05:26:42.623Z,101435.77
2023-03-21T05:27:42.670Z,101435.34
2023-03-21T05:28:43.514Z,101434.89
2023-03-21T05:28:52.181Z,101316.98
2023-03-21T05:29:52.819Z,101433.95
2023-03-21T05:30:53.568Z,101433.70
2023-03-21T05:31:54.168Z,101433.95
2023-03-21T05:32:54.929Z,101433.87
2023-03-21T05:33:55.711Z,101433.45
2023-03-21T05:34:56.451Z,101433.11
2023-03-21T05:35:57.278Z,101432.19
2023-03-21T05:36:58.003Z,101432.02
2023-03-21T05:37:58.765Z,101432.11
2023-03-21T05:38:59.505Z,101432.45
2023-03-21T05:40:00.207Z,101432.59
2023-03-21T05:40:08.886Z,101346.17
2023-03-21T05:41:09.644Z,101438.52
2023-03-21T05:42:10.312Z,101438.35
2023-03-21T05:43:10.947Z,101438.02
2023-03-21T05:44:11.595Z,101438.02
2023-03-21T05:45:12.552Z,101437.84
2023-03-21T05:46:12.736Z,101438.18
2023-03-21T05:47:13.612Z,101438.02
2023-03-21T05:48:14.533Z,101438.02
2023-03-21T05:49:15.408Z,101438.57
2023-03-21T05:50:16.384Z,101438.57
2023-03-21T05:51:17.372Z,101439.08
2023-03-21T05:51:27.045Z,101362.09
2023-03-21T05:52:26.219Z,101449.28
2023-03-21T05:53:27.035Z,101448.27
2023-03-21T05:54:27.971Z,101448.16
2023-03-21T05:55:28.850Z,101448.08
2023-03-21T05:56:29.698Z,101447.75
2023-03-21T05:57:30.436Z,101447.63
2023-03-21T05:58:31.205Z,101447.63
2023-03-21T05:59:32.127Z,101447.77
2023-03-21T06:00:32.995Z,101447.52
2023-03-21T06:01:33.903Z,101447.72
2023-03-21T06:01:42.592Z,101400.00
2023-03-21T06:02:43.258Z,101458.81
2023-03-21T06:03:43.987Z,101458.48
2023-03-21T06:04:44.727Z,101458.06
2023-03-21T06:05:45.413Z,101457.86
2023-03-21T06:06:46.314Z,101457.92
2023-03-21T06:07:46.478Z,101457.59
2023-03-21T06:08:47.402Z,101457.48
2023-03-21T06:09:48.275Z,101457.37
2023-03-21T06:10:49.003Z,101457.77
2023-03-21T06:11:49.614Z,101458.19
2023-03-21T06:11:58.308Z,101407.84
2023-03-21T06:12:59.378Z,101466.25
2023-03-21T06:13:59.152Z,101465.58
2023-03-21T06:14:59.901Z,101464.66
2023-03-21T06:16:00.797Z,101463.81
2023-03-21T06:17:01.451Z,101463.56
2023-03-21T06:18:02.385Z,101463.80
2023-03-21T06:19:03.007Z,101463.42
2023-03-21T06:20:03.882Z,101463.02
2023-03-21T06:21:04.586Z,101462.31
2023-03-21T06:22:05.241Z,101461.95
2023-03-21T06:23:05.872Z,101462.02
2023-03-21T06:23:14.491Z,101344.91
2023-03-21T06:24:15.331Z,101464.56
2023-03-21T06:25:16.252Z,101464.50
2023-03-21T06:26:16.914Z,101464.34
2023-03-21T06:27:17.666Z,101464.67
2023-03-21T06:28:18.326Z,101465.23
2023-03-21T06:29:19.120Z,101465.48
2023-03-21T06:30:19.945Z,101466.08
2023-03-21T06:31:20.965Z,101467.00
2023-03-21T06:32:21.612Z,101468.07
2023-03-21T06:33:22.366Z,101468.75
2023-03-21T06:33:34.040Z,101300.63
2023-03-21T06:34:34.442Z,101484.25
2023-03-21T06:35:35.463Z,101484.34
2023-03-21T06:36:36.145Z,101484.42
2023-03-21T06:37:36.831Z,101484.76
2023-03-21T06:38:37.514Z,101484.91
2023-03-21T06:39:38.241Z,101484.31
2023-03-21T06:40:39.156Z,101484.57
2023-03-21T06:41:39.813Z,101484.74
2023-03-21T06:42:40.592Z,101484.87
2023-03-21T06:43:41.289Z,101485.22
2023-03-21T06:44:42.002Z,101485.45
2023-03-21T06:44:50.577Z,101427.31
2023-03-21T06:45:51.302Z,101490.06
2023-03-21T06:46:52.067Z,101489.73
2023-03-21T06:47:52.778Z,101490.07
2023-03-21T06:48:53.509Z,101490.20
2023-03-21T06:49:55.494Z,101489.88
2023-03-21T06:50:54.962Z,101489.34
2023-03-21T06:51:55.757Z,101489.23
2023-03-21T06:52:55.824Z,101489.70
2023-03-21T06:53:56.702Z,101489.77
2023-03-21T06:54:57.548Z,101489.69
2023-03-21T06:55:58.506Z,101489.91
2023-03-21T06:56:07.662Z,101412.35
2023-03-21T06:57:08.239Z,101489.20
2023-03-21T06:58:08.301Z,101489.11
2023-03-21T06:59:09.063Z,101489.45
2023-03-21T07:00:10.864Z,101489.95
2023-03-21T07:01:10.160Z,101489.70
2023-03-21T07:02:10.618Z,101490.02
2023-03-21T07:03:11.483Z,101490.19
2023-03-21T07:04:12.187Z,101489.82
2023-03-21T07:05:12.954Z,101489.73
2023-03-21T07:06:13.715Z,101489.54
2023-03-21T07:07:13.890Z,101490.10
2023-03-21T07:07:22.514Z,101465.97
2023-03-21T07:08:23.263Z,101495.17
2023-03-21T07:09:23.854Z,101494.75
2023-03-21T07:10:24.537Z,101494.58
2023-03-21T07:11:25.305Z,101494.13
2023-03-21T07:12:25.858Z,101493.80
2023-03-21T07:13:26.662Z,101493.20
2023-03-21T07:14:27.350Z,101493.17
2023-03-21T07:15:28.184Z,101492.81
2023-03-21T07:16:28.992Z,101492.64
2023-03-21T07:17:28.631Z,101492.95
2023-03-21T07:18:29.374Z,101492.53
2023-03-21T07:18:38.505Z,101450.02
2023-03-21T07:19:38.591Z,101491.19
2023-03-21T07:20:39.412Z,101491.10
2023-03-21T07:21:40.147Z,101490.85
2023-03-21T07:22:40.795Z,101490.65
2023-03-21T07:23:41.078Z,101490.48
2023-03-21T07:24:42.055Z,101490.38
2023-03-21T07:25:43.152Z,101489.66
2023-03-21T07:26:43.832Z,101489.50
2023-03-21T07:27:44.643Z,101489.47
2023-03-21T07:28:45.323Z,101489.14
2023-03-21T07:28:54.489Z,101441.65
2023-03-21T07:29:54.848Z,101488.01
2023-03-21T07:30:56.727Z,101487.92
2023-03-21T07:31:56.581Z,101488.34
2023-03-21T07:32:57.432Z,101488.52
2023-03-21T07:33:58.329Z,101487.81
2023-03-21T07:35:01.572Z,101487.87
2023-03-21T07:35:59.891Z,101487.84
2023-03-21T07:37:00.682Z,101488.06
2023-03-21T07:38:01.449Z,101488.20
2023-03-21T07:39:02.129Z,101488.00
2023-03-21T07:39:10.782Z,101442.79
2023-03-21T07:40:11.589Z,101492.50
2023-03-21T07:41:12.224Z,101491.98
2023-03-21T07:42:13.126Z,101492.24
2023-03-21T07:43:13.816Z,101491.96
2023-03-21T07:44:14.456Z,101492.05
2023-03-21T07:45:16.019Z,101491.53
2023-03-21T07:46:15.921Z,101491.03
2023-03-21T07:47:16.517Z,101490.95
2023-03-21T07:48:17.507Z,101491.25
2023-03-21T07:49:18.008Z,101491.64
2023-03-21T07:50:18.228Z,101491.48
2023-03-21T07:50:30.835Z,101516.30
2023-03-21T07:51:31.103Z,101493.23
2023-03-21T07:52:31.926Z,101492.73
2023-03-21T07:53:32.912Z,101493.31
2023-03-21T07:54:33.294Z,101493.83
2023-03-21T07:55:34.160Z,101493.60
2023-03-21T07:56:34.933Z,101494.05
2023-03-21T07:57:35.696Z,101494.64
2023-03-21T07:58:36.468Z,101495.31
2023-03-21T07:59:37.230Z,101496.28
2023-03-21T08:00:37.962Z,101497.29
2023-03-21T08:00:48.152Z,101475.78
2023-03-21T08:01:47.805Z,101509.73
2023-03-21T08:02:48.406Z,101509.73
2023-03-21T08:03:49.166Z,101509.81
2023-03-21T08:04:49.770Z,101510.55
2023-03-21T08:05:50.479Z,101510.52
2023-03-21T08:06:51.083Z,101510.66
2023-03-21T08:07:51.809Z,101511.30
2023-03-21T08:08:52.554Z,101511.78
2023-03-21T08:09:53.514Z,101512.00
2023-03-21T08:10:54.318Z,101512.14
2023-03-21T08:11:05.046Z,101436.16
2023-03-21T08:12:05.712Z,101517.07
2023-03-21T08:13:06.688Z,101516.48
2023-03-21T08:14:07.391Z,101516.65
2023-03-21T08:15:08.064Z,101517.16
2023-03-21T08:16:08.749Z,101517.10
2023-03-21T08:17:09.674Z,101517.77
2023-03-21T08:18:10.193Z,101518.56
2023-03-21T08:19:10.795Z,101518.14
2023-03-21T08:20:12.665Z,101518.59
2023-03-21T08:21:12.550Z,101518.93
2023-03-21T08:21:21.808Z,101495.62
2023-03-21T08:22:22.262Z,101527.30
2023-03-21T08:23:23.047Z,101526.61
2023-03-21T08:24:23.751Z,101526.79
2023-03-21T08:25:23.795Z,101526.84
2023-03-21T08:26:24.477Z,101527.09
2023-03-21T08:27:25.156Z,101527.01
2023-03-21T08:28:26.227Z,101527.31
2023-03-21T08:29:26.950Z,101527.40
2023-03-21T08:30:27.875Z,101527.83
2023-03-21T08:31:28.537Z,101528.08
2023-03-21T08:32:29.247Z,101527.91
2023-03-21T08:32:38.395Z,101517.17
2023-03-21T08:33:39.319Z,101533.73
2023-03-21T08:34:39.657Z,101533.51
2023-03-21T08:35:41.241Z,101533.17
2023-03-21T08:36:40.689Z,101533.17
2023-03-21T08:37:41.414Z,101533.00
2023-03-21T08:38:42.540Z,101533.39
2023-03-21T08:39:42.248Z,101532.89
2023-03-21T08:40:43.071Z,101532.97
2023-03-21T08:41:43.488Z,101532.72
2023-03-21T08:42:44.145Z,101532.72
2023-03-21T08:43:44.957Z,101532.64
2023-03-21T08:43:53.596Z,101498.31
2023-03-21T08:44:53.822Z,101537.02
2023-03-21T08:45:54.634Z,101536.80
2023-03-21T08:46:55.378Z,101536.28
2023-03-21T08:47:55.480Z,101535.64
2023-03-21T08:48:57.350Z,101535.39
2023-03-21T08:49:59.122Z,101535.47
2023-03-21T08:50:57.882Z,101535.13
2023-03-21T08:51:58.589Z,101534.83
2023-03-21T08:52:59.432Z,101534.41
2023-03-21T08:54:00.348Z,101534.41
2023-03-21T08:55:01.137Z,101533.47
2023-03-21T08:55:12.889Z,101462.30
2023-03-21T08:56:12.600Z,101530.41
2023-03-21T08:57:13.354Z,101530.08
2023-03-21T08:58:14.332Z,101529.63
2023-03-21T08:59:15.140Z,101529.45
2023-03-21T09:00:16.001Z,101529.11
2023-03-21T09:01:16.719Z,101528.56
2023-03-21T09:02:17.487Z,101527.97
2023-03-21T09:03:18.449Z,101527.80
2023-03-21T09:04:19.334Z,101527.38
2023-03-21T09:05:19.563Z,101526.95
2023-03-21T09:05:29.822Z,101468.50
2023-03-21T09:06:29.445Z,101531.87
2023-03-21T09:07:30.382Z,101530.86
2023-03-21T09:08:31.238Z,101530.45
2023-03-21T09:09:32.038Z,101529.66
2023-03-21T09:10:32.907Z,101529.06
2023-03-21T09:11:33.712Z,101528.64
2023-03-21T09:12:34.450Z,101527.85
2023-03-21T09:13:35.292Z,101527.34
2023-03-21T09:14:36.060Z,101526.75
2023-03-21T09:15:37.355Z,101525.97
2023-03-21T09:16:37.788Z,101525.13
2023-03-21T09:16:47.006Z,101490.77
2023-03-21T09:17:47.238Z,101509.16
2023-03-21T09:18:48.084Z,101509.41
2023-03-21T09:19:48.836Z,101509.50
2023-03-21T09:20:49.109Z,101509.91
2023-03-21T09:21:49.935Z,101509.95
2023-03-21T09:22:50.759Z,101510.38
2023-03-21T09:23:50.895Z,101510.53
2023-03-21T09:24:51.608Z,101510.57
2023-03-21T09:25:52.634Z,101510.40
2023-03-21T09:26:52.692Z,101510.09
2023-03-21T09:27:53.348Z,101510.34
2023-03-21T09:28:53.780Z,101510.46
2023-03-21T09:29:02.408Z,101480.04
2023-03-21T09:30:02.578Z,101506.92
2023-03-21T09:31:02.688Z,101507.27
2023-03-21T09:32:02.551Z,101507.34
2023-03-21T09:33:02.831Z,101507.34
2023-03-21T09:34:03.579Z,101507.34
2023-03-21T09:35:03.721Z,101507.34
2023-03-21T09:36:04.591Z,101507.52
2023-03-21T09:37:04.794Z,101507.85
2023-03-21T09:38:05.593Z,101508.02
2023-03-21T09:39:06.237Z,101507.97
2023-03-21T09:40:07.038Z,101508.22
2023-03-21T09:40:15.697Z,101508.63
2023-03-21T09:41:16.497Z,101514.22
2023-03-21T09:42:17.282Z,101513.88
2023-03-21T09:43:17.657Z,101513.70
2023-03-21T09:44:18.565Z,101513.37
2023-03-21T09:45:19.579Z,101513.11
2023-03-21T09:46:20.290Z,101513.28
2023-03-21T09:47:20.976Z,101513.45
2023-03-21T09:48:21.659Z,101513.11
2023-03-21T09:49:22.308Z,101513.23
2023-03-21T09:50:22.538Z,101513.91
2023-03-21T09:50:31.226Z,101512.17
2023-03-21T09:51:32.008Z,101519.42
2023-03-21T09:52:32.660Z,101519.33
2023-03-21T09:53:33.265Z,101519.08
2023-03-21T09:54:33.961Z,101519.11
2023-03-21T09:55:35.370Z,101519.11
2023-03-21T09:56:35.070Z,101518.94
2023-03-21T09:57:35.762Z,101518.77
2023-03-21T09:58:36.558Z,101518.18
2023-03-21T09:59:37.230Z,101517.51
2023-03-21T10:00:38.011Z,101517.17
2023-03-21T10:00:47.093Z,101480.89
2023-03-21T10:01:47.736Z,101509.66
2023-03-21T10:02:48.571Z,101509.49
2023-03-21T10:03:49.489Z,101509.58
2023-03-21T10:04:49.581Z,101509.88
2023-03-21T10:05:50.262Z,101509.89
2023-03-21T10:06:51.040Z,101510.28
2023-03-21T10:07:51.839Z,101509.91
2023-03-21T10:08:52.639Z,101510.25
2023-03-21T10:09:52.704Z,101510.81
2023-03-21T10:10:52.706Z,101511.06
2023-03-21T10:12:51.287Z,101490.14
2023-03-21T10:13:51.926Z,101514.76
2023-03-21T10:14:52.550Z,101514.20
2023-03-21T10:15:52.865Z,101513.77
2023-03-21T10:16:53.926Z,101513.05
2023-03-21T10:17:54.098Z,101512.71
2023-03-21T10:18:55.178Z,101511.86
2023-03-21T10:19:54.990Z,101511.66
2023-03-21T10:20:55.691Z,101511.33
2023-03-21T10:22:01.179Z,101510.53
2023-03-21T10:22:57.258Z,101510.20
2023-03-21T10:23:57.659Z,101510.12
2023-03-21T10:24:07.282Z,101459.41
2023-03-21T10:25:06.999Z,101509.12
2023-03-21T10:26:07.793Z,101508.78
2023-03-21T10:27:08.586Z,101508.36
2023-03-21T10:28:09.418Z,101508.41
2023-03-21T10:29:10.242Z,101507.83
2023-03-21T10:30:10.388Z,101507.70
2023-03-21T10:31:11.366Z,101507.17
2023-03-21T10:32:12.010Z,101506.97
2023-03-21T10:33:12.981Z,101505.93
2023-03-21T10:34:13.850Z,101505.48
2023-03-21T10:35:14.587Z,101504.48
2023-03-21T10:35:23.262Z,101461.69
2023-03-21T10:36:24.085Z,101503.71
2023-03-21T10:37:24.216Z,101503.04
2023-03-21T10:38:24.850Z,101502.36
2023-03-21T10:39:25.566Z,101501.06
2023-03-21T10:40:26.362Z,101499.55
2023-03-21T10:41:27.153Z,101498.87
2023-03-21T10:42:28.008Z,101497.94
2023-03-21T10:43:28.739Z,101496.98
2023-03-21T10:44:29.719Z,101495.80
2023-03-21T10:45:30.534Z,101494.27